sensor_id;sensor_type;location;lat;lon;timestamp;pressure;altitude;pressure_sealevel;temperature;humidity
22653;BME280;11493;43.344;26.226;2023-02-16T00:01:51;100709.69;;;-0.91;100.00
22653;BME280;11493;43.344;26.226;2023-02-16T00:04:36;100718.44;;;-0.83;100.00
22653;BME280;11493;43.344;26.226;2023-02-16T00:07:03;100707.63;;;-0.96;100.00
22653;BME280;11493;43.344;26.226;2023-02-16T00:09:30;100718.84;;;-0.92;100.00
22653;BME280;11493;43.344;26.226;2023-02-16T00:11:57;100714.69;;;-0.95;100.00
22653;BME280;11493;43.344;26.226;2023-02-16T00:14:43;100705.13;;;-0.91;100.00
22653;BME280;11493;43.344;26.226;2023-02-16T00:17:10;100713.66;;;-0.81;100.00
22653;BME280;11493;43.344;26.226;2023-02-16T00:19:39;100718.22;;;-0.88;100.00
22653;BME280;11493;43.344;26.226;2023-02-16T00:22:06;100718.00;;;-0.93;100.00
22653;BME280;11493;43.344;26.226;2023-02-16T00:24:35;100703.25;;;-1.04;100.00
22653;BME280;11493;43.344;26.226;2023-02-16T00:27:12;100709.28;;;-1.02;100.00
22653;BME280;11493;43.344;26.226;2023-02-16T00:29:41;100706.97;;;-1.11;100.00
22653;BME280;11493;43.344;26.226;2023-02-16T00:32:11;100717.38;;;-1.08;100.00
22653;BME280;11493;43.344;26.226;2023-02-16T00:34:40;100713.22;;;-1.04;100.00
22653;BME280;11493;43.344;26.226;2023-02-16T00:37:10;100711.97;;;-1.02;100.00
22653;BME280;11493;43.344;26.226;2023-02-16T00:39:38;100704.06;;;-1.10;100.00
22653;BME280;11493;43.344;26.226;2023-02-16T00:42:14;100701.16;;;-1.08;100.00
22653;BME280;11493;43.344;26.226;2023-02-16T00:44:46;100698.25;;;-1.07;100.00
22653;BME280;11493;43.344;26.226;2023-02-16T00:47:30;100704.47;;;-1.06;100.00
22653;BME280;11493;43.344;26.226;2023-02-16T00:49:58;100701.75;;;-1.19;100.00
22653;BME280;11493;43.344;26.226;2023-02-16T00:54:56;100688.25;;;-1.19;100.00
22653;BME280;11493;43.344;26.226;2023-02-16T00:57:26;100695.31;;;-1.18;100.00
22653;BME280;11493;43.344;26.226;2023-02-16T01:00:02;100684.72;;;-1.26;100.00
22653;BME280;11493;43.344;26.226;2023-02-16T01:02:32;100698.44;;;-1.21;100.00
22653;BME280;11493;43.344;26.226;2023-02-16T01:04:59;100698.00;;;-1.18;100.00
22653;BME280;11493;43.344;26.226;2023-02-16T01:07:29;100697.00;;;-1.11;100.00
22653;BME280;11493;43.344;26.226;2023-02-16T01:10:17;100690.94;;;-1.19;100.00
22653;BME280;11493;43.344;26.226;2023-02-16T01:13:03;100698.44;;;-1.21;100.00
22653;BME280;11493;43.344;26.226;2023-02-16T01:15:32;100690.72;;;-1.24;100.00
22653;BME280;11493;43.344;26.226;2023-02-16T01:18:00;100690.94;;;-1.26;100.00
22653;BME280;11493;43.344;26.226;2023-02-16T01:20:27;100700.50;;;-1.23;100.00
22653;BME280;11493;43.344;26.226;2023-02-16T01:22:55;100698.38;;;-1.35;100.00
22653;BME280;11493;43.344;26.226;2023-02-16T01:25:22;100684.88;;;-1.35;100.00
22653;BME280;11493;43.344;26.226;2023-02-16T01:27:52;100690.28;;;-1.35;100.00
22653;BME280;11493;43.344;26.226;2023-02-16T01:30:20;100700.69;;;-1.32;100.00
22653;BME280;11493;43.344;26.226;2023-02-16T01:32:48;100697.75;;;-1.37;100.00
22653;BME280;11493;43.344;26.226;2023-02-16T01:35:37;100678.63;;;-1.42;100.00
22653;BME280;11493;43.344;26.226;2023-02-16T01:38:04;100681.34;;;-1.42;100.00
22653;BME280;11493;43.344;26.226;2023-02-16T01:43:21;100681.75;;;-1.45;100.00
22653;BME280;11493;43.344;26.226;2023-02-16T01:45:52;100672.41;;;-1.55;100.00
22653;BME280;11493;43.344;26.226;2023-02-16T01:48:28;100675.69;;;-1.60;100.00
22653;BME280;11493;43.344;26.226;2023-02-16T01:53:39;100665.72;;;-1.66;100.00
22653;BME280;11493;43.344;26.226;2023-02-16T01:56:28;100668.19;;;-1.71;100.00
22653;BME280;11493;43.344;26.226;2023-02-16T02:02:04;100672.09;;;-1.80;100.00
22653;BME280;11493;43.344;26.226;2023-02-16T02:04:50;100668.53;;;-1.87;100.00
22653;BME280;11493;43.344;26.226;2023-02-16T02:07:48;100683.13;;;-1.75;100.00
22653;BME280;11493;43.344;26.226;2023-02-16T02:10:24;100666.28;;;-1.77;100.00
22653;BME280;11493;43.344;26.226;2023-02-16T02:15:31;100671.28;;;-1.74;100.00
22653;BME280;11493;43.344;26.226;2023-02-16T02:17:58;100681.84;;;-1.79;100.00
22653;BME280;11493;43.344;26.226;2023-02-16T02:20:48;100680.59;;;-1.83;100.00
22653;BME280;11493;43.344;26.226;2023-02-16T02:23:58;100683.50;;;-1.85;100.00
22653;BME280;11493;43.344;26.226;2023-02-16T02:35:16;100638.09;;;-2.16;100.00
22653;BME280;11493;43.344;26.226;2023-02-16T02:40:51;100567.56;;;-2.67;100.00
22653;BME280;11493;43.344;26.226;2023-02-16T02:46:04;100662.13;;;-2.21;100.00
22653;BME280;11493;43.344;26.226;2023-02-16T02:48:34;100664.09;;;-2.02;100.00
22653;BME280;11493;43.344;26.226;2023-02-16T02:51:13;100662.22;;;-2.08;100.00
22653;BME280;11493;43.344;26.226;2023-02-16T02:54:14;100674.03;;;-2.09;100.00
22653;BME280;11493;43.344;26.226;2023-02-16T02:57:16;100678.34;;;-2.14;100.00
22653;BME280;11493;43.344;26.226;2023-02-16T03:00:14;100679.59;;;-2.17;100.00
22653;BME280;11493;43.344;26.226;2023-02-16T03:05:40;100673.56;;;-2.19;100.00
22653;BME280;11493;43.344;26.226;2023-02-16T03:08:12;100667.47;;;-2.34;100.00
22653;BME280;11493;43.344;26.226;2023-02-16T03:10:48;100669.78;;;-2.31;100.00
22653;BME280;11493;43.344;26.226;2023-02-16T03:13:42;100654.41;;;-2.37;100.00
22653;BME280;11493;43.344;26.226;2023-02-16T03:16:22;100672.69;;;-2.33;100.00
22653;BME280;11493;43.344;26.226;2023-02-16T03:18:52;100677.00;;;-2.38;100.00
22653;BME280;11493;43.344;26.226;2023-02-16T03:21:39;100673.28;;;-2.37;100.00
22653;BME280;11493;43.344;26.226;2023-02-16T03:24:30;100674.53;;;-2.33;100.00
22653;BME280;11493;43.344;26.226;2023-02-16T03:27:21;100675.97;;;-2.37;100.00
22653;BME280;11493;43.344;26.226;2023-02-16T03:30:08;100677.38;;;-2.41;100.00
22653;BME280;11493;43.344;26.226;2023-02-16T03:32:38;100674.69;;;-2.41;100.00
22653;BME280;11493;43.344;26.226;2023-02-16T03:35:06;100664.50;;;-2.46;100.00
22653;BME280;11493;43.344;26.226;2023-02-16T03:37:33;100678.66;;;-2.37;100.00
22653;BME280;11493;43.344;26.226;2023-02-16T03:40:00;100676.78;;;-2.37;100.00
22653;BME280;11493;43.344;26.226;2023-02-16T03:42:50;100604.16;;;-2.79;100.00
22653;BME280;11493;43.344;26.226;2023-02-16T03:45:18;100674.53;;;-2.33;100.00
22653;BME280;11493;43.344;26.226;2023-02-16T03:47:46;100665.19;;;-2.37;100.00
22653;BME280;11493;43.344;26.226;2023-02-16T03:50:13;100660.81;;;-2.38;100.00
22653;BME280;11493;43.344;26.226;2023-02-16T03:52:40;100679.53;;;-2.30;100.00
22653;BME280;11493;43.344;26.226;2023-02-16T03:55:08;100647.88;;;-2.49;100.00
22653;BME280;11493;43.344;26.226;2023-02-16T03:57:35;100669.19;;;-2.26;100.00
22653;BME280;11493;43.344;26.226;2023-02-16T04:00:03;100674.78;;;-2.28;100.00
22653;BME280;11493;43.344;26.226;2023-02-16T04:02:38;100653.97;;;-2.41;100.00
22653;BME280;11493;43.344;26.226;2023-02-16T04:05:05;100673.50;;;-2.32;100.00
22653;BME280;11493;43.344;26.226;2023-02-16T04:07:32;100663.06;;;-2.42;100.00
22653;BME280;11493;43.344;26.226;2023-02-16T04:09:59;100670.38;;;-2.36;100.00
22653;BME280;11493;43.344;26.226;2023-02-16T04:12:26;100663.31;;;-2.37;100.00
22653;BME280;11493;43.344;26.226;2023-02-16T04:15:12;100659.16;;;-2.39;100.00
22653;BME280;11493;43.344;26.226;2023-02-16T04:17:39;100667.97;;;-2.24;100.00
22653;BME280;11493;43.344;26.226;2023-02-16T04:20:08;100675.63;;;-2.21;100.00
22653;BME280;11493;43.344;26.226;2023-02-16T04:22:36;100666.69;;;-2.28;100.00
22653;BME280;11493;43.344;26.226;2023-02-16T04:25:03;100676.19;;;-2.32;100.00
22653;BME280;11493;43.344;26.226;2023-02-16T04:27:30;100666.84;;;-2.36;100.00
22653;BME280;11493;43.344;26.226;2023-02-16T04:29:57;100667.88;;;-2.37;100.00
22653;BME280;11493;43.344;26.226;2023-02-16T04:32:24;100669.53;;;-2.36;100.00
22653;BME280;11493;43.344;26.226;2023-02-16T04:34:51;100667.47;;;-2.34;100.00
22653;BME280;11493;43.344;26.226;2023-02-16T04:37:18;100668.28;;;-2.40;100.00
22653;BME280;11493;43.344;26.226;2023-02-16T04:39:45;100674.69;;;-2.41;100.00
22653;BME280;11493;43.344;26.226;2023-02-16T04:42:12;100670.47;;;-2.50;100.00
22653;BME280;11493;43.344;26.226;2023-02-16T04:44:39;100663.19;;;-2.56;100.00
22653;BME280;11493;43.344;26.226;2023-02-16T04:47:06;100680.63;;;-2.52;100.00
22653;BME280;11493;43.344;26.226;2023-02-16T04:49:33;100671.50;;;-2.51;100.00
22653;BME280;11493;43.344;26.226;2023-02-16T04:52:00;100682.13;;;-2.43;100.00
22653;BME280;11493;43.344;26.226;2023-02-16T04:54:30;100677.72;;;-2.51;100.00
22653;BME280;11493;43.344;26.226;2023-02-16T04:56:58;100678.72;;;-2.58;100.00
22653;BME280;11493;43.344;26.226;2023-02-16T04:59:26;100687.63;;;-2.58;100.00
22653;BME280;11493;43.344;26.226;2023-02-16T05:01:52;100678.22;;;-2.69;100.00
22653;BME280;11493;43.344;26.226;2023-02-16T05:04:20;100660.91;;;-2.81;100.00
22653;BME280;11493;43.344;26.226;2023-02-16T05:06:47;100676.94;;;-2.73;100.00
22653;BME280;11493;43.344;26.226;2023-02-16T05:09:14;100695.91;;;-2.59;100.00
22653;BME280;11493;43.344;26.226;2023-02-16T05:11:40;100692.13;;;-2.65;100.00
22653;BME280;11493;43.344;26.226;2023-02-16T05:14:31;100689.63;;;-2.67;100.00
22653;BME280;11493;43.344;26.226;2023-02-16T05:17:30;100670.03;;;-2.82;100.00
22653;BME280;11493;43.344;26.226;2023-02-16T05:19:58;100686.44;;;-2.77;100.00
22653;BME280;11493;43.344;26.226;2023-02-16T05:22:26;100681.84;;;-2.83;100.00
22653;BME280;11493;43.344;26.226;2023-02-16T05:25:00;100684.34;;;-2.81;100.00
22653;BME280;11493;43.344;26.226;2023-02-16T05:27:28;100697.47;;;-2.72;100.00
22653;BME280;11493;43.344;26.226;2023-02-16T05:29:57;100692.47;;;-2.75;100.00
22653;BME280;11493;43.344;26.226;2023-02-16T05:32:24;100681.19;;;-2.85;100.00
22653;BME280;11493;43.344;26.226;2023-02-16T05:34:51;100703.16;;;-2.60;100.00
22653;BME280;11493;43.344;26.226;2023-02-16T05:37:18;100693.81;;;-2.64;100.00
22653;BME280;11493;43.344;26.226;2023-02-16T05:39:46;100710.03;;;-2.57;100.00
22653;BME280;11493;43.344;26.226;2023-02-16T05:42:13;100712.75;;;-2.51;100.00
22653;BME280;11493;43.344;26.226;2023-02-16T05:44:39;100692.56;;;-2.61;100.00
22653;BME280;11493;43.344;26.226;2023-02-16T05:47:07;100700.13;;;-2.50;100.00
22653;BME280;11493;43.344;26.226;2023-02-16T05:49:34;100711.34;;;-2.47;100.00
22653;BME280;11493;43.344;26.226;2023-02-16T05:52:01;100704.72;;;-2.44;100.00
22653;BME280;11493;43.344;26.226;2023-02-16T05:54:28;100712.44;;;-2.41;100.00
22653;BME280;11493;43.344;26.226;2023-02-16T05:56:55;100707.09;;;-2.35;100.00
22653;BME280;11493;43.344;26.226;2023-02-16T05:59:22;100716.88;;;-2.27;100.00
22653;BME280;11493;43.344;26.226;2023-02-16T06:01:49;100709.88;;;-2.15;100.00
22653;BME280;11493;43.344;26.226;2023-02-16T06:04:19;100714.25;;;-2.14;100.00
22653;BME280;11493;43.344;26.226;2023-02-16T06:06:46;100714.47;;;-2.09;100.00
22653;BME280;11493;43.344;26.226;2023-02-16T06:09:14;100729.72;;;-1.94;100.00
22653;BME280;11493;43.344;26.226;2023-02-16T06:11:41;100722.25;;;-1.92;100.00
22653;BME280;11493;43.344;26.226;2023-02-16T06:14:13;100726.69;;;-1.78;100.00
22653;BME280;11493;43.344;26.226;2023-02-16T06:16:42;100736.69;;;-1.72;100.00
22653;BME280;11493;43.344;26.226;2023-02-16T06:19:10;100720.06;;;-1.76;99.58
22653;BME280;11493;43.344;26.226;2023-02-16T06:21:38;100737.16;;;-1.62;99.24
22653;BME280;11493;43.344;26.226;2023-02-16T06:24:07;100715.97;;;-1.65;98.83
22653;BME280;11493;43.344;26.226;2023-02-16T06:26:35;100734.69;;;-1.44;98.77
22653;BME280;11493;43.344;26.226;2023-02-16T06:29:03;100722.88;;;-1.43;98.23
22653;BME280;11493;43.344;26.226;2023-02-16T06:31:32;100737.22;;;-1.36;97.81
22653;BME280;11493;43.344;26.226;2023-02-16T06:34:03;100734.13;;;-1.33;98.05
22653;BME280;11493;43.344;26.226;2023-02-16T06:36:30;100738.72;;;-1.26;97.85
22653;BME280;11493;43.344;26.226;2023-02-16T06:38:58;100742.06;;;-1.18;97.79
22653;BME280;11493;43.344;26.226;2023-02-16T06:41:25;100745.22;;;-1.08;97.91
22653;BME280;11493;43.344;26.226;2023-02-16T06:44:02;100735.88;;;-0.98;97.85
22653;BME280;11493;43.344;26.226;2023-02-16T06:46:29;100721.13;;;-0.89;97.60
22653;BME280;11493;43.344;26.226;2023-02-16T06:48:56;100737.97;;;-0.68;97.58
22653;BME280;11493;43.344;26.226;2023-02-16T06:51:23;100732.78;;;-0.56;97.08
22653;BME280;11493;43.344;26.226;2023-02-16T06:53:51;100739.03;;;-0.42;96.70
22653;BME280;11493;43.344;26.226;2023-02-16T06:56:18;100720.50;;;-0.32;96.70
22653;BME280;11493;43.344;26.226;2023-02-16T06:58:45;100722.34;;;-0.13;96.11
22653;BME280;11493;43.344;26.226;2023-02-16T07:01:11;100721.09;;;-0.04;95.57
22653;BME280;11493;43.344;26.226;2023-02-16T07:03:39;100750.78;;;0.23;95.65
22653;BME280;11493;43.344;26.226;2023-02-16T07:06:06;100726.38;;;0.29;95.26
22653;BME280;11493;43.344;26.226;2023-02-16T07:08:33;100732.59;;;0.43;95.04
22653;BME280;11493;43.344;26.226;2023-02-16T07:11:01;100734.00;;;0.59;95.03
22653;BME280;11493;43.344;26.226;2023-02-16T07:13:29;100736.84;;;0.71;95.02
22653;BME280;11493;43.344;26.226;2023-02-16T07:15:56;100730.72;;;0.82;94.74
22653;BME280;11493;43.344;26.226;2023-02-16T07:18:23;100731.63;;;1.07;94.64
22653;BME280;11493;43.344;26.226;2023-02-16T07:20:50;100734.69;;;1.17;94.89
22653;BME280;11493;43.344;26.226;2023-02-16T07:23:17;100729.78;;;1.33;94.84
22653;BME280;11493;43.344;26.226;2023-02-16T07:25:44;100731.88;;;1.55;94.73
22653;BME280;11493;43.344;26.226;2023-02-16T07:28:11;100723.41;;;1.70;94.44
22653;BME280;11493;43.344;26.226;2023-02-16T07:30:39;100720.78;;;1.82;94.18
22653;BME280;11493;43.344;26.226;2023-02-16T07:33:06;100731.84;;;2.05;93.22
22653;BME280;11493;43.344;26.226;2023-02-16T07:35:34;100725.56;;;2.23;92.24
22653;BME280;11493;43.344;26.226;2023-02-16T07:38:03;100726.41;;;2.42;91.36
22653;BME280;11493;43.344;26.226;2023-02-16T07:40:30;100716.06;;;2.50;91.42
22653;BME280;11493;43.344;26.226;2023-02-16T07:42:59;100724.09;;;2.75;91.43
22653;BME280;11493;43.344;26.226;2023-02-16T07:45:27;100728.22;;;2.96;91.39
22653;BME280;11493;43.344;26.226;2023-02-16T07:47:56;100720.53;;;3.05;92.12
22653;BME280;11493;43.344;26.226;2023-02-16T07:50:23;100704.59;;;3.08;92.92
22653;BME280;11493;43.344;26.226;2023-02-16T07:52:50;100706.16;;;3.27;93.27
22653;BME280;11493;43.344;26.226;2023-02-16T07:55:17;100699.09;;;3.38;93.34
22653;BME280;11493;43.344;26.226;2023-02-16T07:57:44;100705.28;;;3.57;93.49
22653;BME280;11493;43.344;26.226;2023-02-16T08:00:15;100704.56;;;3.73;93.36
22653;BME280;11493;43.344;26.226;2023-02-16T08:02:42;100698.88;;;3.86;93.37
22653;BME280;11493;43.344;26.226;2023-02-16T08:05:09;100704.53;;;4.08;93.13
22653;BME280;11493;43.344;26.226;2023-02-16T08:07:36;100695.88;;;4.23;92.54
22653;BME280;11493;43.344;26.226;2023-02-16T08:10:04;100702.72;;;4.37;92.42
22653;BME280;11493;43.344;26.226;2023-02-16T08:12:32;100693.59;;;4.43;92.12
22653;BME280;11493;43.344;26.226;2023-02-16T08:15:00;100701.59;;;4.50;92.15
22653;BME280;11493;43.344;26.226;2023-02-16T08:17:27;100691.16;;;4.58;91.85
22653;BME280;11493;43.344;26.226;2023-02-16T08:19:54;100703.03;;;4.81;90.80
22653;BME280;11493;43.344;26.226;2023-02-16T08:22:21;100700.50;;;4.91;90.35
22653;BME280;11493;43.344;26.226;2023-02-16T08:24:48;100702.94;;;5.04;90.64
22653;BME280;11493;43.344;26.226;2023-02-16T08:27:15;100705.28;;;5.12;90.84
22653;BME280;11493;43.344;26.226;2023-02-16T08:29:42;100708.25;;;5.27;89.78
22653;BME280;11493;43.344;26.226;2023-02-16T08:32:12;100703.81;;;5.38;89.24
22653;BME280;11493;43.344;26.226;2023-02-16T08:34:40;100707.03;;;5.52;89.13
22653;BME280;11493;43.344;26.226;2023-02-16T08:37:11;100699.84;;;5.63;88.51
22653;BME280;11493;43.344;26.226;2023-02-16T08:39:38;100689.66;;;5.75;88.18
22653;BME280;11493;43.344;26.226;2023-02-16T08:42:06;100700.59;;;5.91;88.17
22653;BME280;11493;43.344;26.226;2023-02-16T08:44:34;100704.09;;;6.09;87.33
22653;BME280;11493;43.344;26.226;2023-02-16T08:47:01;100687.63;;;6.04;87.18
22653;BME280;11493;43.344;26.226;2023-02-16T08:49:28;100697.44;;;6.21;86.72
22653;BME280;11493;43.344;26.226;2023-02-16T08:51:57;100696.31;;;6.39;86.20
22653;BME280;11493;43.344;26.226;2023-02-16T08:54:27;100690.66;;;6.46;86.02
22653;BME280;11493;43.344;26.226;2023-02-16T08:56:57;100693.91;;;6.65;85.71
22653;BME280;11493;43.344;26.226;2023-02-16T08:59:25;100685.47;;;6.71;85.48
22653;BME280;11493;43.344;26.226;2023-02-16T09:01:56;100699.13;;;6.93;85.41
22653;BME280;11493;43.344;26.226;2023-02-16T09:04:24;100695.63;;;6.98;85.11
22653;BME280;11493;43.344;26.226;2023-02-16T09:06:53;100697.91;;;7.06;84.41
22653;BME280;11493;43.344;26.226;2023-02-16T09:09:22;100691.13;;;7.13;83.89
22653;BME280;11493;43.344;26.226;2023-02-16T09:11:49;100691.19;;;7.18;83.90
22653;BME280;11493;43.344;26.226;2023-02-16T09:14:17;100680.84;;;7.25;83.66
22653;BME280;11493;43.344;26.226;2023-02-16T09:16:44;100687.00;;;7.43;82.91
22653;BME280;11493;43.344;26.226;2023-02-16T09:19:14;100690.16;;;7.62;82.67
22653;BME280;11493;43.344;26.226;2023-02-16T09:21:42;100698.44;;;7.67;82.32
22653;BME280;11493;43.344;26.226;2023-02-16T09:24:09;100684.78;;;7.72;81.59
22653;BME280;11493;43.344;26.226;2023-02-16T09:26:38;100678.09;;;7.95;80.95
22653;BME280;11493;43.344;26.226;2023-02-16T09:29:12;100677.03;;;8.01;81.00
22653;BME280;11493;43.344;26.226;2023-02-16T09:31:39;100684.19;;;8.07;80.87
22653;BME280;11493;43.344;26.226;2023-02-16T09:34:17;100683.09;;;8.08;80.90
22653;BME280;11493;43.344;26.226;2023-02-16T09:36:45;100679.56;;;8.17;80.54
22653;BME280;11493;43.344;26.226;2023-02-16T09:39:13;100679.88;;;8.26;79.46
22653;BME280;11493;43.344;26.226;2023-02-16T09:46:54;100666.31;;;8.51;78.60
22653;BME280;11493;43.344;26.226;2023-02-16T09:54:49;100671.91;;;8.77;77.35
22653;BME280;11493;43.344;26.226;2023-02-16T09:57:37;100665.34;;;8.88;76.13
22653;BME280;11493;43.344;26.226;2023-02-16T10:00:22;100662.59;;;8.93;75.80
22653;BME280;11493;43.344;26.226;2023-02-16T10:11:09;100650.00;;;9.17;74.60
22653;BME280;11493;43.344;26.226;2023-02-16T10:14:05;100651.66;;;9.18;73.27
22653;BME280;11493;43.344;26.226;2023-02-16T10:16:40;100641.22;;;9.20;72.62
22653;BME280;11493;43.344;26.226;2023-02-16T10:19:21;100637.38;;;9.32;72.00
22653;BME280;11493;43.344;26.226;2023-02-16T10:21:54;100639.84;;;9.43;71.53
22653;BME280;11493;43.344;26.226;2023-02-16T10:24:24;100620.88;;;9.42;71.73
22653;BME280;11493;43.344;26.226;2023-02-16T10:26:58;100628.31;;;9.41;71.76
22653;BME280;11493;43.344;26.226;2023-02-16T10:29:28;100628.31;;;9.57;71.44
22653;BME280;11493;43.344;26.226;2023-02-16T10:34:49;100612.34;;;9.64;67.68
22653;BME280;11493;43.344;26.226;2023-02-16T10:37:34;100624.09;;;9.84;67.30
22653;BME280;11493;43.344;26.226;2023-02-16T10:45:49;100619.63;;;10.19;66.25
22653;BME280;11493;43.344;26.226;2023-02-16T10:48:20;100614.69;;;10.16;64.80
22653;BME280;11493;43.344;26.226;2023-02-16T10:51:00;100603.44;;;10.02;63.23
22653;BME280;11493;43.344;26.226;2023-02-16T10:53:35;100600.94;;;10.11;63.54
22653;BME280;11493;43.344;26.226;2023-02-16T10:59:24;100602.31;;;10.13;61.77
22653;BME280;11493;43.344;26.226;2023-02-16T11:01:57;100584.13;;;10.28;60.89
22653;BME280;11493;43.344;26.226;2023-02-16T11:04:40;100584.38;;;10.31;61.78
22653;BME280;11493;43.344;26.226;2023-02-16T11:07:09;100592.78;;;10.55;61.49
22653;BME280;11493;43.344;26.226;2023-02-16T11:09:39;100580.41;;;10.52;59.71
22653;BME280;11493;43.344;26.226;2023-02-16T11:17:49;100569.44;;;10.42;53.83
22653;BME280;11493;43.344;26.226;2023-02-16T11:20:32;100555.75;;;10.37;53.86
22653;BME280;11493;43.344;26.226;2023-02-16T11:26:23;100533.66;;;10.42;53.78
22653;BME280;11493;43.344;26.226;2023-02-16T11:28:51;100546.75;;;10.66;53.51
22653;BME280;11493;43.344;26.226;2023-02-16T11:31:33;100545.00;;;10.80;53.61
22653;BME280;11493;43.344;26.226;2023-02-16T11:36:41;100543.66;;;10.72;54.61
22653;BME280;11493;43.344;26.226;2023-02-16T11:39:22;100541.41;;;10.79;53.37
22653;BME280;11493;43.344;26.226;2023-02-16T11:41:53;100524.06;;;10.79;54.31
22653;BME280;11493;43.344;26.226;2023-02-16T11:47:06;100526.31;;;10.72;54.34
22653;BME280;11493;43.344;26.226;2023-02-16T11:49:38;100515.25;;;10.82;54.89
22653;BME280;11493;43.344;26.226;2023-02-16T11:54:50;100515.13;;;10.97;53.29
22653;BME280;11493;43.344;26.226;2023-02-16T11:57:26;100513.06;;;11.13;52.96
22653;BME280;11493;43.344;26.226;2023-02-16T11:59:55;100503.44;;;11.10;51.86
22653;BME280;11493;43.344;26.226;2023-02-16T12:16:58;100476.13;;;11.38;49.99
22653;BME280;11493;43.344;26.226;2023-02-16T12:19:38;100456.06;;;11.32;49.11
22653;BME280;11493;43.344;26.226;2023-02-16T12:24:52;100463.72;;;11.40;49.16
22653;BME280;11493;43.344;26.226;2023-02-16T12:30:27;100456.66;;;11.29;47.81
22653;BME280;11493;43.344;26.226;2023-02-16T12:43:58;100405.47;;;11.47;49.71
22653;BME280;11493;43.344;26.226;2023-02-16T12:46:35;100422.47;;;11.54;49.27
22653;BME280;11493;43.344;26.226;2023-02-16T12:49:25;100346.34;;;11.15;49.68
22653;BME280;11493;43.344;26.226;2023-02-16T12:54:44;100426.88;;;11.79;49.75
22653;BME280;11493;43.344;26.226;2023-02-16T12:57:15;100411.91;;;11.61;48.91
22653;BME280;11493;43.344;26.226;2023-02-16T13:00:13;100424.00;;;11.65;49.79
22653;BME280;11493;43.344;26.226;2023-02-16T13:02:52;100414.53;;;11.71;50.18
22653;BME280;11493;43.344;26.226;2023-02-16T13:05:31;100414.22;;;11.78;49.25
22653;BME280;11493;43.344;26.226;2023-02-16T13:10:57;100405.97;;;11.73;48.72
22653;BME280;11493;43.344;26.226;2023-02-16T13:13:32;100403.34;;;11.87;48.81
22653;BME280;11493;43.344;26.226;2023-02-16T13:16:17;100396.72;;;11.88;49.38
22653;BME280;11493;43.344;26.226;2023-02-16T13:18:56;100377.19;;;11.84;49.29
22653;BME280;11493;43.344;26.226;2023-02-16T13:21:43;100347.00;;;11.50;48.58
22653;BME280;11493;43.344;26.226;2023-02-16T13:27:36;100386.69;;;11.92;47.52
22653;BME280;11493;43.344;26.226;2023-02-16T13:44:34;100377.94;;;11.66;46.20
22653;BME280;11493;43.344;26.226;2023-02-16T13:47:06;100374.38;;;11.65;46.31
22653;BME280;11493;43.344;26.226;2023-02-16T13:49:38;100377.19;;;11.60;46.05
22653;BME280;11493;43.344;26.226;2023-02-16T13:52:13;100377.03;;;11.51;45.89
22653;BME280;11493;43.344;26.226;2023-02-16T13:55:32;100377.03;;;11.51;45.61
22653;BME280;11493;43.344;26.226;2023-02-16T14:00:47;100368.00;;;11.46;45.49
22653;BME280;11493;43.344;26.226;2023-02-16T14:05:46;100373.34;;;11.37;46.13
22653;BME280;11493;43.344;26.226;2023-02-16T14:08:22;100364.63;;;11.30;46.76
22653;BME280;11493;43.344;26.226;2023-02-16T14:15:54;100359.34;;;11.34;48.22
22653;BME280;11493;43.344;26.226;2023-02-16T14:18:55;100361.56;;;11.32;48.22
22653;BME280;11493;43.344;26.226;2023-02-16T14:21:46;100354.19;;;11.27;47.62
22653;BME280;11493;43.344;26.226;2023-02-16T14:27:00;100353.50;;;11.16;47.17
22653;BME280;11493;43.344;26.226;2023-02-16T14:35:03;100341.84;;;11.01;47.87
22653;BME280;11493;43.344;26.226;2023-02-16T14:37:53;100343.78;;;11.00;48.00
22653;BME280;11493;43.344;26.226;2023-02-16T14:40:58;100350.47;;;10.94;48.54
22653;BME280;11493;43.344;26.226;2023-02-16T14:43:30;100347.00;;;10.83;48.32
22653;BME280;11493;43.344;26.226;2023-02-16T15:00:31;100355.56;;;10.53;52.92
22653;BME280;11493;43.344;26.226;2023-02-16T15:05:41;100344.25;;;10.26;54.08
22653;BME280;11493;43.344;26.226;2023-02-16T15:08:24;100355.56;;;10.19;53.99
22653;BME280;11493;43.344;26.226;2023-02-16T15:11:02;100354.28;;;10.06;54.52
22653;BME280;11493;43.344;26.226;2023-02-16T15:13:38;100344.44;;;10.00;54.79
22653;BME280;11493;43.344;26.226;2023-02-16T15:16:06;100344.22;;;9.92;55.10
22653;BME280;11493;43.344;26.226;2023-02-16T15:18:43;100338.84;;;9.71;55.38
22653;BME280;11493;43.344;26.226;2023-02-16T15:21:24;100346.00;;;9.67;55.55
22653;BME280;11493;43.344;26.226;2023-02-16T15:23:58;100347.72;;;9.63;56.30
22653;BME280;11493;43.344;26.226;2023-02-16T15:26:32;100346.69;;;9.49;57.01
22653;BME280;11493;43.344;26.226;2023-02-16T15:29:12;100333.06;;;9.29;57.45
22653;BME280;11493;43.344;26.226;2023-02-16T15:31:39;100336.94;;;9.22;57.95
22653;BME280;11493;43.344;26.226;2023-02-16T15:34:12;100335.88;;;9.13;58.26
22653;BME280;11493;43.344;26.226;2023-02-16T15:36:42;100333.72;;;9.00;59.07
22653;BME280;11493;43.344;26.226;2023-02-16T15:39:23;100327.75;;;8.83;59.78
22653;BME280;11493;43.344;26.226;2023-02-16T15:42:19;100333.28;;;8.73;59.79
22653;BME280;11493;43.344;26.226;2023-02-16T15:44:47;100319.84;;;8.56;60.94
22653;BME280;11493;43.344;26.226;2023-02-16T15:47:23;100326.19;;;8.46;61.46
22653;BME280;11493;43.344;26.226;2023-02-16T15:49:52;100337.16;;;8.36;62.40
22653;BME280;11493;43.344;26.226;2023-02-16T15:52:32;100327.25;;;8.25;63.32
22653;BME280;11493;43.344;26.226;2023-02-16T15:55:02;100316.88;;;8.07;63.85